sensor_id;sensor_type;location;lat;lon;timestamp;P1;durP1;ratioP1;P2;durP2;ratioP2
61411;SDS011;47278;49.732;7.690;2022-09-09T11:20:31;9.82;;;2.15;;
61411;SDS011;47278;49.732;7.690;2022-09-09T11:25:44;12.82;;;2.40;;
61411;SDS011;47278;49.732;7.690;2022-09-09T12:37:55;2.75;;;1.10;;
61411;SDS011;47278;49.732;7.690;2022-09-09T12:42:50;3.58;;;1.10;;
61411;SDS011;47278;49.732;7.690;2022-09-09T12:45:21;3.10;;;1.20;;
61411;SDS011;47278;49.732;7.690;2022-09-09T12:50:25;3.85;;;1.33;;
61411;SDS011;47278;49.732;7.690;2022-09-09T12:52:53;5.32;;;1.30;;
61411;SDS011;47278;49.732;7.690;2022-09-09T12:55:23;5.03;;;1.20;;
61411;SDS011;47278;49.732;7.690;2022-09-09T12:57:52;4.88;;;1.15;;
61411;SDS011;47278;49.732;7.690;2022-09-09T13:00:20;7.65;;;1.20;;
61411;SDS011;47278;49.732;7.690;2022-09-09T13:02:51;4.60;;;1.35;;
61411;SDS011;47278;49.732;7.690;2022-09-09T13:05:21;4.97;;;1.40;;
61411;SDS011;47278;49.732;7.690;2022-09-09T13:07:50;3.58;;;1.27;;
61411;SDS011;47278;49.732;7.690;2022-09-09T13:10:26;6.15;;;1.10;;
61411;SDS011;47278;49.732;7.690;2022-09-09T13:12:54;4.97;;;1.45;;
61411;SDS011;47278;49.732;7.690;2022-09-09T13:15:23;3.78;;;1.27;;
61411;SDS011;47278;49.732;7.690;2022-09-09T13:17:56;3.35;;;1.35;;
61411;SDS011;47278;49.732;7.690;2022-09-09T13:20:26;4.22;;;1.60;;
61411;SDS011;47278;49.732;7.690;2022-09-09T13:22:53;5.60;;;1.30;;
61411;SDS011;47278;49.732;7.690;2022-09-09T13:25:24;4.88;;;1.58;;
61411;SDS011;47278;49.732;7.690;2022-09-09T13:27:53;4.57;;;1.48;;
61411;SDS011;47278;49.732;7.690;2022-09-09T13:30:34;8.65;;;1.70;;
61411;SDS011;47278;49.732;7.690;2022-09-09T13:35:34;5.60;;;1.60;;
61411;SDS011;47278;49.732;7.690;2022-09-09T13:38:12;5.07;;;1.60;;
61411;SDS011;47278;49.732;7.690;2022-09-09T13:40:40;3.33;;;1.48;;
61411;SDS011;47278;49.732;7.690;2022-09-09T13:43:10;5.45;;;1.70;;
61411;SDS011;47278;49.732;7.690;2022-09-09T13:45:51;3.47;;;1.43;;
61411;SDS011;47278;49.732;7.690;2022-09-09T13:48:29;3.55;;;1.58;;
61411;SDS011;47278;49.732;7.690;2022-09-09T13:51:03;9.10;;;1.80;;
61411;SDS011;47278;49.732;7.690;2022-09-09T13:53:32;6.15;;;1.52;;
61411;SDS011;47278;49.732;7.690;2022-09-09T13:55:58;5.03;;;1.60;;
61411;SDS011;47278;49.732;7.690;2022-09-09T13:58:24;7.32;;;1.70;;
61411;SDS011;47278;49.732;7.690;2022-09-09T14:00:51;7.28;;;2.05;;
61411;SDS011;47278;49.732;7.690;2022-09-09T14:03:17;5.13;;;1.83;;
61411;SDS011;47278;49.732;7.690;2022-09-09T14:05:44;4.45;;;1.60;;
61411;SDS011;47278;49.732;7.690;2022-09-09T14:08:13;2.92;;;1.45;;
61411;SDS011;47278;49.732;7.690;2022-09-09T14:10:47;6.45;;;1.98;;
61411;SDS011;47278;49.732;7.690;2022-09-09T14:13:13;5.35;;;1.60;;
61411;SDS011;47278;49.732;7.690;2022-09-09T14:15:40;5.28;;;1.52;;
61411;SDS011;47278;49.732;7.690;2022-09-09T14:18:08;4.53;;;1.50;;
61411;SDS011;47278;49.732;7.690;2022-09-09T14:20:36;6.72;;;1.52;;
61411;SDS011;47278;49.732;7.690;2022-09-09T14:23:02;3.92;;;1.38;;
61411;SDS011;47278;49.732;7.690;2022-09-09T14:25:28;4.07;;;1.17;;
61411;SDS011;47278;49.732;7.690;2022-09-09T14:27:53;3.97;;;1.10;;
61411;SDS011;47278;49.732;7.690;2022-09-09T14:30:19;7.93;;;1.50;;
61411;SDS011;47278;49.732;7.690;2022-09-09T14:32:44;4.88;;;1.52;;
61411;SDS011;47278;49.732;7.690;2022-09-09T14:35:10;3.88;;;1.40;;
61411;SDS011;47278;49.732;7.690;2022-09-09T14:37:37;4.97;;;1.50;;
61411;SDS011;47278;49.732;7.690;2022-09-09T14:40:04;2.47;;;1.20;;
61411;SDS011;47278;49.732;7.690;2022-09-09T14:42:30;6.40;;;1.60;;
61411;SDS011;47278;49.732;7.690;2022-09-09T14:44:56;2.13;;;1.00;;
61411;SDS011;47278;49.732;7.690;2022-09-09T14:47:21;4.57;;;1.48;;
61411;SDS011;47278;49.732;7.690;2022-09-09T14:49:49;5.20;;;1.35;;
61411;SDS011;47278;49.732;7.690;2022-09-09T14:52:15;3.78;;;1.35;;
61411;SDS011;47278;49.732;7.690;2022-09-09T14:54:41;3.72;;;1.50;;
61411;SDS011;47278;49.732;7.690;2022-09-09T14:57:07;2.97;;;1.30;;
61411;SDS011;47278;49.732;7.690;2022-09-09T14:59:32;3.45;;;1.30;;
61411;SDS011;47278;49.732;7.690;2022-09-09T15:02:00;4.28;;;1.55;;
61411;SDS011;47278;49.732;7.690;2022-09-09T15:04:29;3.47;;;1.20;;
61411;SDS011;47278;49.732;7.690;2022-09-09T15:06:54;5.38;;;1.20;;
61411;SDS011;47278;49.732;7.690;2022-09-09T15:11:46;2.58;;;1.10;;
61411;SDS011;47278;49.732;7.690;2022-09-09T15:14:11;3.22;;;1.23;;
61411;SDS011;47278;49.732;7.690;2022-09-09T15:16:38;4.90;;;1.10;;
61411;SDS011;47278;49.732;7.690;2022-09-09T15:19:04;2.65;;;1.10;;
61411;SDS011;47278;49.732;7.690;2022-09-09T15:21:30;3.78;;;1.08;;
61411;SDS011;47278;49.732;7.690;2022-09-09T15:23:58;3.38;;;1.15;;
61411;SDS011;47278;49.732;7.690;2022-09-09T15:26:24;3.97;;;1.10;;
61411;SDS011;47278;49.732;7.690;2022-09-09T15:28:51;3.08;;;1.30;;
61411;SDS011;47278;49.732;7.690;2022-09-09T15:31:18;5.60;;;1.10;;
61411;SDS011;47278;49.732;7.690;2022-09-09T15:33:53;6.75;;;1.30;;
61411;SDS011;47278;49.732;7.690;2022-09-09T15:36:26;3.45;;;1.20;;
61411;SDS011;47278;49.732;7.690;2022-09-09T15:38:57;5.65;;;1.30;;
61411;SDS011;47278;49.732;7.690;2022-09-09T15:41:23;5.03;;;1.50;;
61411;SDS011;47278;49.732;7.690;2022-09-09T15:43:51;3.15;;;1.10;;
61411;SDS011;47278;49.732;7.690;2022-09-09T15:46:31;4.60;;;1.17;;
61411;SDS011;47278;49.732;7.690;2022-09-09T15:51:34;3.85;;;1.23;;
61411;SDS011;47278;49.732;7.690;2022-09-09T15:54:00;4.30;;;1.20;;
61411;SDS011;47278;49.732;7.690;2022-09-09T15:56:27;4.80;;;1.63;;
61411;SDS011;47278;49.732;7.690;2022-09-09T15:58:55;4.15;;;1.05;;
61411;SDS011;47278;49.732;7.690;2022-09-09T16:01:22;4.40;;;1.30;;
61411;SDS011;47278;49.732;7.690;2022-09-09T16:03:48;2.03;;;1.05;;
61411;SDS011;47278;49.732;7.690;2022-09-09T16:06:15;4.60;;;1.08;;
61411;SDS011;47278;49.732;7.690;2022-09-09T16:08:43;3.75;;;1.30;;
61411;SDS011;47278;49.732;7.690;2022-09-09T16:11:12;3.38;;;1.00;;
61411;SDS011;47278;49.732;7.690;2022-09-09T16:13:40;4.35;;;1.15;;
61411;SDS011;47278;49.732;7.690;2022-09-09T16:16:07;2.47;;;1.00;;
61411;SDS011;47278;49.732;7.690;2022-09-09T16:18:35;3.30;;;1.40;;
61411;SDS011;47278;49.732;7.690;2022-09-09T16:21:01;4.38;;;1.10;;
61411;SDS011;47278;49.732;7.690;2022-09-09T16:23:28;2.88;;;1.02;;
61411;SDS011;47278;49.732;7.690;2022-09-09T16:28:20;0.80;;;0.73;;
61411;SDS011;47278;49.732;7.690;2022-09-09T16:30:45;2.75;;;1.00;;
61411;SDS011;47278;49.732;7.690;2022-09-09T16:33:11;1.30;;;0.70;;
61411;SDS011;47278;49.732;7.690;2022-09-09T16:35:39;0.93;;;0.52;;
61411;SDS011;47278;49.732;7.690;2022-09-09T16:38:06;1.50;;;0.80;;
61411;SDS011;47278;49.732;7.690;2022-09-09T16:50:18;3.63;;;0.73;;
61411;SDS011;47278;49.732;7.690;2022-09-09T16:52:44;2.28;;;0.80;;
61411;SDS011;47278;49.732;7.690;2022-09-09T16:55:10;2.33;;;0.88;;
61411;SDS011;47278;49.732;7.690;2022-09-09T16:57:36;1.90;;;0.80;;
61411;SDS011;47278;49.732;7.690;2022-09-09T17:00:03;2.65;;;0.70;;
61411;SDS011;47278;49.732;7.690;2022-09-09T17:02:30;2.80;;;0.75;;
61411;SDS011;47278;49.732;7.690;2022-09-09T17:04:56;2.40;;;0.70;;
61411;SDS011;47278;49.732;7.690;2022-09-09T17:07:22;1.23;;;0.80;;
61411;SDS011;47278;49.732;7.690;2022-09-09T17:12:14;1.50;;;0.82;;
61411;SDS011;47278;49.732;7.690;2022-09-09T17:14:41;2.30;;;0.80;;
61411;SDS011;47278;49.732;7.690;2022-09-09T17:17:07;2.25;;;0.70;;
61411;SDS011;47278;49.732;7.690;2022-09-09T17:19:33;3.50;;;1.00;;
61411;SDS011;47278;49.732;7.690;2022-09-09T17:21:59;3.03;;;0.88;;
61411;SDS011;47278;49.732;7.690;2022-09-09T17:24:25;2.22;;;0.90;;
61411;SDS011;47278;49.732;7.690;2022-09-09T17:26:53;3.15;;;1.00;;
61411;SDS011;47278;49.732;7.690;2022-09-09T17:29:20;3.03;;;0.90;;
61411;SDS011;47278;49.732;7.690;2022-09-09T17:31:46;2.42;;;0.80;;
61411;SDS011;47278;49.732;7.690;2022-09-09T17:34:11;3.28;;;1.08;;
61411;SDS011;47278;49.732;7.690;2022-09-09T17:36:37;6.18;;;1.10;;
61411;SDS011;47278;49.732;7.690;2022-09-09T17:39:04;2.78;;;1.00;;
61411;SDS011;47278;49.732;7.690;2022-09-09T17:41:31;2.88;;;1.10;;
61411;SDS011;47278;49.732;7.690;2022-09-09T17:43:59;7.25;;;1.00;;
61411;SDS011;47278;49.732;7.690;2022-09-09T17:46:29;4.47;;;1.08;;
61411;SDS011;47278;49.732;7.690;2022-09-09T17:49:01;2.75;;;1.08;;
61411;SDS011;47278;49.732;7.690;2022-09-09T17:51:32;2.15;;;1.17;;
61411;SDS011;47278;49.732;7.690;2022-09-09T17:54:08;2.38;;;0.70;;
61411;SDS011;47278;49.732;7.690;2022-09-09T17:56:37;2.25;;;0.80;;
61411;SDS011;47278;49.732;7.690;2022-09-09T17:59:04;6.05;;;1.40;;
61411;SDS011;47278;49.732;7.690;2022-09-09T18:01:32;4.22;;;1.13;;
61411;SDS011;47278;49.732;7.690;2022-09-09T18:04:00;3.38;;;1.27;;
61411;SDS011;47278;49.732;7.690;2022-09-09T18:06:30;4.03;;;1.20;;
61411;SDS011;47278;49.732;7.690;2022-09-09T18:09:02;3.70;;;1.38;;
61411;SDS011;47278;49.732;7.690;2022-09-09T18:11:32;5.05;;;1.20;;
61411;SDS011;47278;49.732;7.690;2022-09-09T18:14:00;4.05;;;1.40;;
61411;SDS011;47278;49.732;7.690;2022-09-09T18:16:28;4.97;;;1.23;;
61411;SDS011;47278;49.732;7.690;2022-09-09T18:18:55;8.90;;;1.45;;
61411;SDS011;47278;49.732;7.690;2022-09-09T18:21:25;3.97;;;1.25;;
61411;SDS011;47278;49.732;7.690;2022-09-09T18:23:53;9.60;;;1.33;;
61411;SDS011;47278;49.732;7.690;2022-09-09T18:26:22;2.17;;;1.20;;
61411;SDS011;47278;49.732;7.690;2022-09-09T18:28:52;4.55;;;1.38;;
61411;SDS011;47278;49.732;7.690;2022-09-09T18:31:19;2.88;;;1.02;;
61411;SDS011;47278;49.732;7.690;2022-09-09T18:33:47;4.05;;;1.40;;
61411;SDS011;47278;49.732;7.690;2022-09-09T18:36:18;5.28;;;1.30;;
61411;SDS011;47278;49.732;7.690;2022-09-09T18:38:49;8.45;;;3.20;;
61411;SDS011;47278;49.732;7.690;2022-09-09T18:41:19;6.20;;;3.58;;
61411;SDS011;47278;49.732;7.690;2022-09-09T18:43:50;3.80;;;1.52;;
61411;SDS011;47278;49.732;7.690;2022-09-09T18:46:19;3.58;;;1.98;;
61411;SDS011;47278;49.732;7.690;2022-09-09T18:48:47;5.10;;;1.80;;
61411;SDS011;47278;49.732;7.690;2022-09-09T18:51:15;3.55;;;1.90;;
61411;SDS011;47278;49.732;7.690;2022-09-09T18:53:49;3.90;;;1.70;;
61411;SDS011;47278;49.732;7.690;2022-09-09T18:56:20;4.68;;;1.52;;
61411;SDS011;47278;49.732;7.690;2022-09-09T18:58:46;2.67;;;1.67;;
61411;SDS011;47278;49.732;7.690;2022-09-09T19:01:15;3.13;;;1.30;;
61411;SDS011;47278;49.732;7.690;2022-09-09T19:03:41;5.53;;;1.42;;
61411;SDS011;47278;49.732;7.690;2022-09-09T19:06:08;3.05;;;1.58;;
61411;SDS011;47278;49.732;7.690;2022-09-09T19:08:41;4.85;;;1.40;;
61411;SDS011;47278;49.732;7.690;2022-09-09T19:11:10;3.55;;;1.27;;
61411;SDS011;47278;49.732;7.690;2022-09-09T19:13:40;5.88;;;1.50;;
61411;SDS011;47278;49.732;7.690;2022-09-09T19:16:09;7.93;;;1.38;;
61411;SDS011;47278;49.732;7.690;2022-09-09T19:18:37;3.05;;;1.20;;
61411;SDS011;47278;49.732;7.690;2022-09-09T19:23:39;3.08;;;1.27;;
61411;SDS011;47278;49.732;7.690;2022-09-09T19:26:08;3.08;;;1.30;;
61411;SDS011;47278;49.732;7.690;2022-09-09T19:28:35;3.33;;;1.30;;
61411;SDS011;47278;49.732;7.690;2022-09-09T19:31:07;7.30;;;1.30;;
61411;SDS011;47278;49.732;7.690;2022-09-09T19:33:34;3.53;;;1.40;;
61411;SDS011;47278;49.732;7.690;2022-09-09T19:36:02;3.72;;;1.50;;
61411;SDS011;47278;49.732;7.690;2022-09-09T19:38:31;3.70;;;1.42;;
61411;SDS011;47278;49.732;7.690;2022-09-09T19:41:04;7.13;;;1.50;;
61411;SDS011;47278;49.732;7.690;2022-09-09T19:43:32;4.25;;;1.40;;
61411;SDS011;47278;49.732;7.690;2022-09-09T19:45:59;3.35;;;1.45;;
61411;SDS011;47278;49.732;7.690;2022-09-09T19:48:30;2.75;;;1.35;;
61411;SDS011;47278;49.732;7.690;2022-09-09T19:53:36;3.05;;;1.40;;
61411;SDS011;47278;49.732;7.690;2022-09-09T19:56:13;4.72;;;1.40;;
61411;SDS011;47278;49.732;7.690;2022-09-09T19:58:40;3.40;;;1.33;;
61411;SDS011;47278;49.732;7.690;2022-09-09T20:01:10;3.05;;;1.30;;
61411;SDS011;47278;49.732;7.690;2022-09-09T20:03:36;3.13;;;1.40;;
61411;SDS011;47278;49.732;7.690;2022-09-09T20:06:07;7.00;;;1.92;;
61411;SDS011;47278;49.732;7.690;2022-09-09T20:08:34;4.32;;;1.50;;
61411;SDS011;47278;49.732;7.690;2022-09-09T20:11:01;5.00;;;1.40;;
61411;SDS011;47278;49.732;7.690;2022-09-09T20:13:28;6.72;;;2.20;;
61411;SDS011;47278;49.732;7.690;2022-09-09T20:15:58;6.47;;;2.05;;
61411;SDS011;47278;49.732;7.690;2022-09-09T20:18:29;7.60;;;1.60;;
61411;SDS011;47278;49.732;7.690;2022-09-09T20:21:06;4.72;;;1.40;;
61411;SDS011;47278;49.732;7.690;2022-09-09T20:23:34;7.03;;;1.33;;
61411;SDS011;47278;49.732;7.690;2022-09-09T20:26:05;6.05;;;1.40;;
61411;SDS011;47278;49.732;7.690;2022-09-09T20:28:33;5.30;;;1.30;;
61411;SDS011;47278;49.732;7.690;2022-09-09T20:31:04;4.25;;;1.90;;
61411;SDS011;47278;49.732;7.690;2022-09-09T20:33:34;5.70;;;1.42;;
61411;SDS011;47278;49.732;7.690;2022-09-09T20:36:14;4.30;;;1.48;;
61411;SDS011;47278;49.732;7.690;2022-09-09T20:38:45;5.53;;;1.60;;
61411;SDS011;47278;49.732;7.690;2022-09-09T20:41:12;4.32;;;1.20;;
61411;SDS011;47278;49.732;7.690;2022-09-09T20:43:39;3.58;;;1.30;;
61411;SDS011;47278;49.732;7.690;2022-09-09T20:46:11;2.50;;;1.20;;
61411;SDS011;47278;49.732;7.690;2022-09-09T20:48:36;5.80;;;1.38;;
61411;SDS011;47278;49.732;7.690;2022-09-09T20:51:03;2.97;;;1.20;;
61411;SDS011;47278;49.732;7.690;2022-09-09T20:53:30;5.55;;;1.30;;
61411;SDS011;47278;49.732;7.690;2022-09-09T20:56:02;6.55;;;1.20;;
61411;SDS011;47278;49.732;7.690;2022-09-09T20:58:32;3.85;;;1.17;;
61411;SDS011;47278;49.732;7.690;2022-09-09T21:00:58;4.85;;;1.30;;
61411;SDS011;47278;49.732;7.690;2022-09-09T21:03:28;4.00;;;1.40;;
61411;SDS011;47278;49.732;7.690;2022-09-09T21:05:57;4.07;;;1.40;;
61411;SDS011;47278;49.732;7.690;2022-09-09T21:08:24;2.50;;;1.30;;
61411;SDS011;47278;49.732;7.690;2022-09-09T21:10:51;3.05;;;1.45;;
61411;SDS011;47278;49.732;7.690;2022-09-09T21:13:16;3.47;;;1.20;;
61411;SDS011;47278;49.732;7.690;2022-09-09T21:15:43;2.97;;;1.60;;
61411;SDS011;47278;49.732;7.690;2022-09-09T21:18:09;2.80;;;1.40;;
61411;SDS011;47278;49.732;7.690;2022-09-09T21:20:35;1.85;;;1.38;;
61411;SDS011;47278;49.732;7.690;2022-09-09T21:23:02;4.30;;;1.30;;
61411;SDS011;47278;49.732;7.690;2022-09-09T21:25:28;4.60;;;1.40;;
61411;SDS011;47278;49.732;7.690;2022-09-09T21:27:54;2.30;;;1.30;;
61411;SDS011;47278;49.732;7.690;2022-09-09T21:30:20;2.20;;;1.27;;
61411;SDS011;47278;49.732;7.690;2022-09-09T21:32:45;6.53;;;1.45;;
61411;SDS011;47278;49.732;7.690;2022-09-09T21:35:11;3.95;;;1.30;;
61411;SDS011;47278;49.732;7.690;2022-09-09T21:37:37;4.85;;;1.65;;
61411;SDS011;47278;49.732;7.690;2022-09-09T21:40:03;6.00;;;1.35;;
61411;SDS011;47278;49.732;7.690;2022-09-09T21:42:29;7.53;;;1.60;;
61411;SDS011;47278;49.732;7.690;2022-09-09T21:44:55;4.25;;;1.52;;
61411;SDS011;47278;49.732;7.690;2022-09-09T21:47:21;4.30;;;1.50;;
61411;SDS011;47278;49.732;7.690;2022-09-09T21:49:47;5.60;;;1.65;;
61411;SDS011;47278;49.732;7.690;2022-09-09T21:52:12;6.05;;;1.52;;
61411;SDS011;47278;49.732;7.690;2022-09-09T21:54:39;4.78;;;1.73;;
61411;SDS011;47278;49.732;7.690;2022-09-09T21:57:07;2.63;;;1.70;;
61411;SDS011;47278;49.732;7.690;2022-09-09T21:59:33;6.25;;;1.42;;
61411;SDS011;47278;49.732;7.690;2022-09-09T22:01:59;4.03;;;1.52;;
61411;SDS011;47278;49.732;7.690;2022-09-09T22:04:25;7.45;;;1.50;;
61411;SDS011;47278;49.732;7.690;2022-09-09T22:06:50;3.90;;;1.50;;
61411;SDS011;47278;49.732;7.690;2022-09-09T22:09:16;6.00;;;1.40;;
61411;SDS011;47278;49.732;7.690;2022-09-09T22:11:42;7.13;;;1.70;;
61411;SDS011;47278;49.732;7.690;2022-09-09T22:14:07;4.82;;;1.80;;
61411;SDS011;47278;49.732;7.690;2022-09-09T22:16:33;7.70;;;2.20;;
61411;SDS011;47278;49.732;7.690;2022-09-09T22:18:59;4.18;;;1.80;;
61411;SDS011;47278;49.732;7.690;2022-09-09T22:21:27;8.88;;;2.10;;
61411;SDS011;47278;49.732;7.690;2022-09-09T22:23:58;3.22;;;1.90;;
61411;SDS011;47278;49.732;7.690;2022-09-09T22:26:26;4.35;;;2.03;;
61411;SDS011;47278;49.732;7.690;2022-09-09T22:28:54;9.90;;;2.08;;
61411;SDS011;47278;49.732;7.690;2022-09-09T22:31:21;4.53;;;2.03;;
61411;SDS011;47278;49.732;7.690;2022-09-09T22:33:48;6.00;;;2.22;;
61411;SDS011;47278;49.732;7.690;2022-09-09T22:36:15;7.05;;;2.45;;
61411;SDS011;47278;49.732;7.690;2022-09-09T22:38:40;10.30;;;2.53;;
61411;SDS011;47278;49.732;7.690;2022-09-09T22:41:06;6.55;;;1.98;;
61411;SDS011;47278;49.732;7.690;2022-09-09T22:43:32;10.23;;;1.90;;
61411;SDS011;47278;49.732;7.690;2022-09-09T22:46:01;3.83;;;2.38;;
61411;SDS011;47278;49.732;7.690;2022-09-09T22:48:34;3.92;;;1.90;;
61411;SDS011;47278;49.732;7.690;2022-09-09T22:51:05;9.32;;;2.55;;
61411;SDS011;47278;49.732;7.690;2022-09-09T22:53:33;5.47;;;2.10;;
61411;SDS011;47278;49.732;7.690;2022-09-09T22:56:01;4.47;;;2.40;;
61411;SDS011;47278;49.732;7.690;2022-09-09T22:58:32;5.30;;;2.47;;
61411;SDS011;47278;49.732;7.690;2022-09-09T23:01:00;5.00;;;2.38;;
61411;SDS011;47278;49.732;7.690;2022-09-09T23:03:33;8.48;;;2.55;;
61411;SDS011;47278;49.732;7.690;2022-09-09T23:05:59;5.50;;;2.90;;
61411;SDS011;47278;49.732;7.690;2022-09-09T23:08:29;9.05;;;3.67;;
61411;SDS011;47278;49.732;7.690;2022-09-09T23:11:03;5.93;;;3.70;;
61411;SDS011;47278;49.732;7.690;2022-09-09T23:13:32;5.72;;;4.03;;
61411;SDS011;47278;49.732;7.690;2022-09-09T23:16:07;6.70;;;4.15;;
61411;SDS011;47278;49.732;7.690;2022-09-09T23:18:34;12.32;;;4.82;;
61411;SDS011;47278;49.732;7.690;2022-09-09T23:21:01;11.68;;;5.82;;
61411;SDS011;47278;49.732;7.690;2022-09-09T23:23:27;8.90;;;5.35;;
61411;SDS011;47278;49.732;7.690;2022-09-09T23:25:53;6.90;;;5.10;;
61411;SDS011;47278;49.732;7.690;2022-09-09T23:28:19;9.32;;;5.53;;
61411;SDS011;47278;49.732;7.690;2022-09-09T23:30:45;7.95;;;5.03;;
61411;SDS011;47278;49.732;7.690;2022-09-09T23:33:11;6.10;;;4.82;;
61411;SDS011;47278;49.732;7.690;2022-09-09T23:35:36;6.18;;;4.22;;
61411;SDS011;47278;49.732;7.690;2022-09-09T23:38:02;9.30;;;4.00;;
61411;SDS011;47278;49.732;7.690;2022-09-09T23:40:29;5.70;;;3.88;;
61411;SDS011;47278;49.732;7.690;2022-09-09T23:42:55;9.23;;;3.67;;
61411;SDS011;47278;49.732;7.690;2022-09-09T23:45:21;7.47;;;3.50;;
61411;SDS011;47278;49.732;7.690;2022-09-09T23:47:47;12.52;;;3.47;;
61411;SDS011;47278;49.732;7.690;2022-09-09T23:50:12;5.22;;;3.13;;
61411;SDS011;47278;49.732;7.690;2022-09-09T23:52:38;10.90;;;3.28;;
61411;SDS011;47278;49.732;7.690;2022-09-09T23:55:08;6.10;;;3.63;;
61411;SDS011;47278;49.732;7.690;2022-09-09T23:57:34;9.55;;;4.40;;
61411;SDS011;47278;49.732;7.690;2022-09-09T23:59:59;6.80;;;4.55;;
